createdAt,value
2022-09-23T00:01:27.554Z,100.00
2022-09-23T00:03:56.380Z,100.00
2022-09-23T00:06:24.903Z,100.00
2022-09-23T00:08:53.889Z,100.00
2022-09-23T00:11:25.259Z,100.00
2022-09-23T00:13:57.537Z,100.00
2022-09-23T00:16:29.749Z,100.00
2022-09-23T00:18:58.016Z,100.00
2022-09-23T00:21:26.218Z,100.00
2022-09-23T00:23:54.710Z,100.00
2022-09-23T00:26:24.058Z,100.00
2022-09-23T00:28:52.592Z,100.00
2022-09-23T00:31:25.972Z,100.00
2022-09-23T00:33:59.363Z,100.00
2022-09-23T00:36:29.211Z,100.00
2022-09-23T00:38:57.499Z,100.00
2022-09-23T00:41:26.627Z,100.00
2022-09-23T00:43:58.358Z,100.00
2022-09-23T00:46:37.318Z,100.00
2022-09-23T00:49:25.761Z,100.00
2022-09-23T00:52:06.814Z,100.00
2022-09-23T00:54:35.390Z,100.00
2022-09-23T00:57:05.695Z,100.00
2022-09-23T00:59:34.488Z,100.00
2022-09-23T01:02:04.307Z,100.00
2022-09-23T01:04:33.297Z,100.00
2022-09-23T01:07:01.375Z,100.00
2022-09-23T01:09:29.581Z,100.00
2022-09-23T01:12:24.006Z,100.00
2022-09-23T01:15:00.779Z,100.00
2022-09-23T01:17:39.614Z,100.00
2022-09-23T01:20:23.731Z,100.00
2022-09-23T01:23:15.637Z,100.00
2022-09-23T01:26:21.107Z,100.00
2022-09-23T01:28:57.257Z,100.00
2022-09-23T01:31:49.635Z,100.00
2022-09-23T01:35:01.382Z,100.00
2022-09-23T01:37:41.844Z,100.00
2022-09-23T01:40:34.926Z,100.00
2022-09-23T01:43:53.200Z,100.00
2022-09-23T01:46:48.284Z,100.00
2022-09-23T01:49:32.617Z,100.00
2022-09-23T01:52:15.908Z,100.00
2022-09-23T01:55:09.523Z,100.00
2022-09-23T01:57:46.982Z,100.00
2022-09-23T02:00:18.100Z,100.00
2022-09-23T02:02:54.505Z,100.00
2022-09-23T02:05:28.013Z,100.00
2022-09-23T02:08:06.202Z,100.00
2022-09-23T02:11:00.731Z,100.00
2022-09-23T02:13:39.484Z,100.00
2022-09-23T02:16:39.523Z,100.00
2022-09-23T02:19:18.242Z,100.00
2022-09-23T02:22:03.840Z,100.00
2022-09-23T02:24:36.473Z,100.00
2022-09-23T02:27:37.649Z,100.00
2022-09-23T02:30:14.156Z,100.00
2022-09-23T02:33:00.602Z,100.00
2022-09-23T02:35:44.098Z,100.00
2022-09-23T02:38:29.545Z,100.00
2022-09-23T02:41:23.129Z,100.00
2022-09-23T02:44:01.962Z,100.00
2022-09-23T02:46:30.731Z,100.00
2022-09-23T02:49:13.813Z,100.00
2022-09-23T02:51:43.330Z,100.00
2022-09-23T02:54:18.128Z,100.00
2022-09-23T02:56:51.538Z,100.00
2022-09-23T02:59:20.966Z,100.00
2022-09-23T03:02:21.877Z,100.00
2022-09-23T03:05:26.468Z,100.00
2022-09-23T03:08:43.086Z,100.00
2022-09-23T03:11:13.679Z,100.00
2022-09-23T03:14:06.701Z,100.00
2022-09-23T03:16:42.789Z,100.00
2022-09-23T03:19:33.911Z,100.00
2022-09-23T03:22:19.018Z,100.00
2022-09-23T03:24:53.713Z,100.00
2022-09-23T03:27:29.994Z,100.00
2022-09-23T03:30:01.464Z,100.00
2022-09-23T03:32:32.083Z,100.00
2022-09-23T03:35:02.946Z,100.00
2022-09-23T03:37:46.707Z,100.00
2022-09-23T03:40:32.543Z,100.00
2022-09-23T03:43:07.165Z,100.00
2022-09-23T03:45:36.409Z,100.00
2022-09-23T03:48:04.641Z,100.00
2022-09-23T03:50:32.801Z,100.00
2022-09-23T03:53:01.509Z,100.00
2022-09-23T03:55:29.663Z,100.00
2022-09-23T03:58:00.298Z,100.00
2022-09-23T04:00:28.381Z,100.00
2022-09-23T04:02:57.288Z,100.00
2022-09-23T04:05:25.388Z,100.00
2022-09-23T04:07:53.621Z,100.00
2022-09-23T04:10:21.767Z,100.00
2022-09-23T04:12:49.948Z,100.00
2022-09-23T04:15:18.088Z,100.00
2022-09-23T04:17:46.255Z,100.00
2022-09-23T04:20:14.495Z,100.00
2022-09-23T04:22:42.835Z,100.00
2022-09-23T04:25:13.754Z,100.00
2022-09-23T04:27:41.837Z,100.00
2022-09-23T04:30:10.502Z,100.00
2022-09-23T04:32:41.758Z,100.00
2022-09-23T04:35:09.945Z,100.00
2022-09-23T04:37:38.107Z,100.00
2022-09-23T04:40:08.147Z,100.00
2022-09-23T04:42:39.295Z,100.00
2022-09-23T04:45:07.931Z,100.00
2022-09-23T04:47:36.327Z,100.00
2022-09-23T04:50:07.530Z,100.00
2022-09-23T04:52:35.619Z,100.00
2022-09-23T04:55:05.320Z,100.00
2022-09-23T04:57:36.090Z,100.00
2022-09-23T05:00:04.684Z,100.00
2022-09-23T05:02:34.146Z,100.00
2022-09-23T05:05:02.368Z,100.00
2022-09-23T05:07:33.491Z,100.00
2022-09-23T05:10:01.609Z,100.00
2022-09-23T05:12:29.767Z,100.00
2022-09-23T05:14:57.903Z,100.00
2022-09-23T05:17:26.100Z,100.00
2022-09-23T05:19:58.281Z,100.00
2022-09-23T05:22:26.846Z,100.00
2022-09-23T05:24:57.625Z,100.00
2022-09-23T05:27:25.734Z,100.00
2022-09-23T05:29:53.932Z,100.00
2022-09-23T05:32:22.499Z,100.00
2022-09-23T05:34:50.604Z,100.00
2022-09-23T05:37:18.685Z,100.00
2022-09-23T05:39:46.758Z,100.00
2022-09-23T05:42:15.885Z,100.00
2022-09-23T05:44:44.201Z,100.00
2022-09-23T05:47:12.257Z,100.00
2022-09-23T05:49:58.624Z,100.00
2022-09-23T05:52:28.459Z,100.00
2022-09-23T05:54:56.494Z,100.00
2022-09-23T05:57:27.297Z,100.00
2022-09-23T05:59:55.412Z,100.00
2022-09-23T06:02:23.659Z,100.00
2022-09-23T06:04:51.874Z,100.00
2022-09-23T06:07:22.948Z,100.00
2022-09-23T06:09:52.800Z,100.00
2022-09-23T06:12:21.320Z,100.00
2022-09-23T06:14:50.715Z,100.00
2022-09-23T06:17:18.880Z,100.00
2022-09-23T06:19:46.954Z,100.00
2022-09-23T06:22:16.936Z,100.00
2022-09-23T06:24:45.007Z,100.00
2022-09-23T06:27:13.441Z,100.00
2022-09-23T06:29:41.510Z,100.00
2022-09-23T06:32:09.614Z,100.00
2022-09-23T06:34:49.592Z,100.00
2022-09-23T06:37:20.614Z,100.00
2022-09-23T06:39:49.181Z,100.00
2022-09-23T06:42:17.694Z,100.00
2022-09-23T06:44:45.821Z,100.00
2022-09-23T06:47:14.390Z,100.00
2022-09-23T06:49:42.517Z,100.00
2022-09-23T06:52:10.649Z,100.00
2022-09-23T06:54:38.734Z,100.00
2022-09-23T06:57:10.251Z,100.00
2022-09-23T06:59:38.310Z,100.00
2022-09-23T07:02:07.504Z,100.00
2022-09-23T07:04:36.021Z,96.43
2022-09-23T07:07:04.277Z,98.69
2022-09-23T07:09:32.469Z,99.75
2022-09-23T07:12:00.609Z,93.65
2022-09-23T07:14:28.682Z,90.77
2022-09-23T07:16:57.321Z,91.95
2022-09-23T07:19:26.153Z,92.21
2022-09-23T07:21:54.308Z,93.42
2022-09-23T07:24:22.986Z,91.92
2022-09-23T07:26:51.116Z,88.33
2022-09-23T07:29:19.216Z,84.57
2022-09-23T07:31:47.316Z,83.57
2022-09-23T07:34:15.544Z,77.99
2022-09-23T07:36:46.577Z,76.43
2022-09-23T07:39:14.934Z,74.46
2022-09-23T07:41:44.603Z,74.86
2022-09-23T07:44:13.770Z,74.52
2022-09-23T07:46:42.886Z,72.94
2022-09-23T07:49:11.327Z,70.05
2022-09-23T07:51:40.978Z,72.47
2022-09-23T07:54:12.811Z,69.98
2022-09-23T07:56:41.813Z,62.41
2022-09-23T07:59:15.339Z,62.67
2022-09-23T08:01:46.308Z,65.63
2022-09-23T08:04:21.008Z,65.09
2022-09-23T08:06:52.195Z,66.84
2022-09-23T08:09:23.075Z,68.06
2022-09-23T08:11:52.492Z,63.05
2022-09-23T08:14:22.286Z,62.65
2022-09-23T08:16:51.168Z,62.46
2022-09-23T08:19:19.840Z,60.61
2022-09-23T08:21:48.223Z,61.99
2022-09-23T08:24:19.288Z,61.58
2022-09-23T08:26:48.703Z,64.23
2022-09-23T08:29:19.148Z,61.26
2022-09-23T08:31:49.533Z,60.28
2022-09-23T08:34:19.584Z,61.95
2022-09-23T08:36:48.137Z,59.04
2022-09-23T08:39:23.198Z,60.79
2022-09-23T08:41:58.585Z,57.58
2022-09-23T08:44:44.998Z,60.02
2022-09-23T08:47:22.403Z,56.66
2022-09-23T08:49:53.413Z,56.31
2022-09-23T08:52:39.862Z,57.71
2022-09-23T08:55:12.749Z,57.08
2022-09-23T09:01:00.757Z,51.33
2022-09-23T09:03:40.668Z,51.96
2022-09-23T09:06:17.841Z,50.92
2022-09-23T09:08:53.044Z,51.61
2022-09-23T09:11:23.553Z,52.63
2022-09-23T09:14:18.611Z,50.81
2022-09-23T09:17:09.656Z,50.58
2022-09-23T09:19:43.827Z,53.49
2022-09-23T09:22:20.506Z,51.64
2022-09-23T09:24:50.464Z,50.88
2022-09-23T09:27:19.176Z,50.57
2022-09-23T09:29:53.383Z,53.78
2022-09-23T09:32:35.983Z,53.82
2022-09-23T09:35:20.160Z,52.59
2022-09-23T09:37:48.673Z,52.70
2022-09-23T09:40:17.695Z,54.89
2022-09-23T09:42:49.819Z,57.54
2022-09-23T09:45:26.347Z,57.52
2022-09-23T09:48:14.998Z,55.17
2022-09-23T09:50:45.863Z,53.32
2022-09-23T09:53:25.241Z,53.83
2022-09-23T09:56:04.643Z,53.93
2022-09-23T09:58:50.558Z,52.70
2022-09-23T10:01:33.390Z,52.56
2022-09-23T10:04:06.907Z,54.44
2022-09-23T10:06:36.182Z,53.05
2022-09-23T10:09:09.446Z,53.84
2022-09-23T10:11:38.551Z,57.13
2022-09-23T10:14:24.530Z,54.07
2022-09-23T10:17:05.456Z,54.64
2022-09-23T10:19:37.140Z,54.96
2022-09-23T10:22:22.041Z,54.35
2022-09-23T10:24:57.513Z,54.89
2022-09-23T10:27:35.334Z,55.69
2022-09-23T10:30:23.568Z,51.96
2022-09-23T10:32:54.936Z,52.51
2022-09-23T10:35:25.513Z,55.29
2022-09-23T10:37:58.856Z,53.73
2022-09-23T10:40:49.708Z,51.13
2022-09-23T10:44:04.284Z,51.59
2022-09-23T10:47:04.466Z,51.91
2022-09-23T10:49:52.616Z,52.05
2022-09-23T10:52:48.200Z,54.93
2022-09-23T10:55:44.975Z,53.95
2022-09-23T10:58:36.614Z,54.55
2022-09-23T11:01:25.815Z,52.95
2022-09-23T11:04:09.283Z,52.06
2022-09-23T11:06:58.153Z,52.82
2022-09-23T11:09:44.191Z,52.86
2022-09-23T11:12:12.341Z,52.61
2022-09-23T11:14:43.435Z,50.61
2022-09-23T11:17:14.876Z,49.96
2022-09-23T11:19:56.013Z,51.24
2022-09-23T11:22:38.087Z,48.97
2022-09-23T11:25:16.834Z,49.91
2022-09-23T11:28:06.600Z,49.86
2022-09-23T11:30:37.779Z,48.09
2022-09-23T11:33:49.381Z,49.04
2022-09-23T11:36:39.812Z,48.83
2022-09-23T11:39:17.528Z,49.32
2022-09-23T11:41:47.140Z,48.73
2022-09-23T11:44:27.750Z,47.64
2022-09-23T11:46:58.920Z,48.08
2022-09-23T11:49:27.132Z,47.38
2022-09-23T11:52:08.903Z,47.53
2022-09-23T11:54:48.796Z,47.43
2022-09-23T11:57:48.990Z,46.38
2022-09-23T12:00:21.099Z,46.36
2022-09-23T12:03:17.914Z,48.95
2022-09-23T12:05:51.398Z,47.43
2022-09-23T12:08:29.852Z,49.14
2022-09-23T12:11:16.351Z,45.45
2022-09-23T12:14:08.587Z,45.55
2022-09-23T12:16:39.824Z,45.64
2022-09-23T12:19:07.967Z,45.47
2022-09-23T12:21:51.749Z,48.54
2022-09-23T12:24:31.746Z,48.21
2022-09-23T12:27:07.866Z,48.19
2022-09-23T12:29:37.880Z,46.70
2022-09-23T12:32:10.034Z,45.73
2022-09-23T12:34:44.146Z,44.20
2022-09-23T12:37:14.105Z,44.89
2022-09-23T12:39:46.837Z,47.53
2022-09-23T12:42:22.841Z,47.11
2022-09-23T12:44:51.913Z,44.30
2022-09-23T12:47:25.840Z,42.94
2022-09-23T12:49:55.129Z,43.11
2022-09-23T12:52:27.892Z,44.18
2022-09-23T12:54:58.725Z,45.00
2022-09-23T12:57:35.723Z,44.34
2022-09-23T13:00:22.661Z,43.91
2022-09-23T13:03:10.662Z,42.73
2022-09-23T13:06:19.077Z,42.06
2022-09-23T13:08:49.508Z,43.51
2022-09-23T13:11:28.764Z,44.65
2022-09-23T13:14:02.103Z,41.43
2022-09-23T13:16:33.908Z,42.28
2022-09-23T13:19:24.672Z,41.92
2022-09-23T13:21:58.235Z,41.02
2022-09-23T13:24:28.945Z,39.31
2022-09-23T13:27:15.841Z,40.43
2022-09-23T13:30:02.502Z,41.36
2022-09-23T13:32:34.320Z,42.24
2022-09-23T13:35:16.315Z,41.64
2022-09-23T13:37:47.558Z,42.97
2022-09-23T13:40:21.702Z,43.40
2022-09-23T13:43:03.161Z,45.18
2022-09-23T13:45:36.256Z,44.94
2022-09-23T13:48:07.385Z,41.83
2022-09-23T13:50:54.679Z,44.17
2022-09-23T13:53:31.096Z,42.75
2022-09-23T13:56:19.453Z,43.23
2022-09-23T13:58:48.805Z,45.62
2022-09-23T14:01:36.124Z,44.21
2022-09-23T14:04:04.292Z,45.34
2022-09-23T14:06:38.148Z,45.78
2022-09-23T14:09:07.009Z,46.14
2022-09-23T14:11:35.619Z,45.47
2022-09-23T14:14:08.069Z,44.87
2022-09-23T14:16:39.513Z,45.31
2022-09-23T14:19:11.487Z,46.06
2022-09-23T14:21:40.553Z,45.75
2022-09-23T14:24:25.990Z,46.80
2022-09-23T14:27:00.211Z,46.26
2022-09-23T14:29:35.227Z,45.67
2022-09-23T14:32:05.214Z,46.59
2022-09-23T14:35:01.199Z,48.17
2022-09-23T14:37:57.250Z,48.20
2022-09-23T14:40:50.784Z,47.97
2022-09-23T14:43:25.000Z,48.82
2022-09-23T14:46:02.013Z,49.49
2022-09-23T14:48:35.449Z,48.23
2022-09-23T14:51:06.294Z,47.79
2022-09-23T14:53:40.682Z,47.57
2022-09-23T14:56:08.833Z,47.12
2022-09-23T14:58:59.584Z,48.51
2022-09-23T15:01:33.675Z,48.70
2022-09-23T15:04:13.009Z,47.97
2022-09-23T15:06:54.633Z,48.03
2022-09-23T15:09:29.748Z,49.12
2022-09-23T15:12:05.109Z,47.50
2022-09-23T15:14:41.053Z,49.83
2022-09-23T15:17:24.423Z,48.40
2022-09-23T15:19:56.884Z,48.27
2022-09-23T15:22:26.245Z,49.13
2022-09-23T15:25:08.411Z,49.30
2022-09-23T15:27:36.619Z,49.49
2022-09-23T15:30:19.394Z,49.98
2022-09-23T15:32:47.841Z,50.52
2022-09-23T15:35:19.006Z,51.82
2022-09-23T15:37:49.130Z,48.34
2022-09-23T15:40:30.202Z,50.93
2022-09-23T15:43:01.226Z,51.75
2022-09-23T15:45:37.003Z,50.11
2022-09-23T15:48:10.906Z,48.70
2022-09-23T15:50:41.181Z,48.62
2022-09-23T15:53:15.127Z,49.81
2022-09-23T15:55:43.252Z,50.81
2022-09-23T15:58:11.467Z,53.23
2022-09-23T16:00:39.727Z,52.93
2022-09-23T16:03:07.846Z,51.70
2022-09-23T16:05:40.400Z,51.73
2022-09-23T16:08:10.423Z,54.96
2022-09-23T16:10:38.972Z,53.91
2022-09-23T16:13:12.321Z,54.94
2022-09-23T16:15:40.779Z,56.92
2022-09-23T16:18:10.477Z,55.22
2022-09-23T16:20:44.838Z,57.01
2022-09-23T16:23:35.358Z,58.01
2022-09-23T16:26:15.277Z,58.29
2022-09-23T16:28:45.533Z,58.88
2022-09-23T16:31:16.094Z,59.85
2022-09-23T16:33:45.944Z,60.97
2022-09-23T16:36:31.371Z,60.56
2022-09-23T16:39:01.860Z,61.82
2022-09-23T16:41:33.673Z,64.48
2022-09-23T16:44:04.558Z,65.12
2022-09-23T16:46:34.028Z,64.00
2022-09-23T16:49:02.607Z,64.97
2022-09-23T16:51:38.367Z,67.07
2022-09-23T16:54:12.118Z,68.68
2022-09-23T16:56:45.058Z,66.52
2022-09-23T16:59:14.961Z,69.37
2022-09-23T17:02:02.383Z,70.83
2022-09-23T17:04:33.125Z,72.77
2022-09-23T17:07:01.373Z,73.94
2022-09-23T17:09:42.578Z,74.03
2022-09-23T17:12:32.640Z,73.44
2022-09-23T17:15:01.243Z,76.12
2022-09-23T17:17:29.582Z,75.28
2022-09-23T17:19:57.639Z,76.93
2022-09-23T17:22:26.094Z,79.15
2022-09-23T17:24:54.269Z,79.01
2022-09-23T17:27:22.684Z,79.12
2022-09-23T17:29:51.581Z,80.06
2022-09-23T17:32:20.951Z,79.35
2022-09-23T17:34:52.262Z,82.44
2022-09-23T17:37:20.293Z,81.44
2022-09-23T17:39:48.495Z,82.14
2022-09-23T17:42:18.183Z,83.30
2022-09-23T17:44:46.530Z,83.85
2022-09-23T17:47:14.726Z,84.97
2022-09-23T17:49:42.936Z,85.60
2022-09-23T17:52:11.035Z,85.77
2022-09-23T17:54:39.196Z,86.11
2022-09-23T17:57:07.357Z,89.11
2022-09-23T17:59:35.417Z,89.78
2022-09-23T18:02:03.707Z,91.47
2022-09-23T18:04:33.982Z,90.26
2022-09-23T18:07:04.658Z,91.59
2022-09-23T18:09:32.731Z,91.83
2022-09-23T18:12:00.878Z,92.71
2022-09-23T18:14:29.353Z,93.25
2022-09-23T18:16:57.521Z,93.50
2022-09-23T18:19:25.897Z,94.78
2022-09-23T18:21:57.198Z,94.30
2022-09-23T18:24:32.227Z,93.76
2022-09-23T18:27:01.779Z,95.10
2022-09-23T18:29:30.165Z,94.78
2022-09-23T18:31:59.301Z,94.45
2022-09-23T18:34:28.571Z,96.04
2022-09-23T18:36:56.649Z,95.34
2022-09-23T18:39:25.023Z,96.04
2022-09-23T18:41:53.142Z,96.09
2022-09-23T18:44:24.383Z,95.38
2022-09-23T18:46:52.491Z,96.01
2022-09-23T18:49:39.448Z,96.99
2022-09-23T18:52:07.639Z,97.11
2022-09-23T18:54:35.688Z,98.41
2022-09-23T18:57:03.841Z,97.43
2022-09-23T18:59:33.451Z,97.45
2022-09-23T19:02:01.811Z,98.32
2022-09-23T19:04:30.109Z,98.33
2022-09-23T19:06:58.877Z,98.53
2022-09-23T19:09:30.935Z,99.04
2022-09-23T19:11:59.005Z,99.81
2022-09-23T19:14:27.168Z,99.05
2022-09-23T19:16:55.219Z,100.00
2022-09-23T19:19:23.320Z,100.00
2022-09-23T19:21:51.754Z,99.89
2022-09-23T19:24:21.017Z,99.69
2022-09-23T19:26:50.271Z,99.42
2022-09-23T19:29:19.876Z,100.00
2022-09-23T19:31:48.855Z,99.27
2022-09-23T19:34:20.261Z,99.92
2022-09-23T19:36:48.565Z,100.00
2022-09-23T19:39:25.280Z,100.00
2022-09-23T19:41:55.997Z,100.00
2022-09-23T19:44:26.088Z,100.00
2022-09-23T19:46:56.871Z,99.61
2022-09-23T19:49:26.015Z,100.00
2022-09-23T19:51:56.092Z,100.00
2022-09-23T19:54:26.626Z,100.00
2022-09-23T19:56:55.079Z,98.72
2022-09-23T19:59:23.272Z,97.36
2022-09-23T20:01:51.584Z,97.90
2022-09-23T20:04:20.056Z,97.45
2022-09-23T20:06:49.666Z,97.55
2022-09-23T20:09:17.869Z,96.32
2022-09-23T20:11:48.750Z,97.26
2022-09-23T20:14:19.436Z,98.96
2022-09-23T20:16:47.760Z,98.94
2022-09-23T20:19:16.147Z,98.43
2022-09-23T20:21:46.743Z,96.79
2022-09-23T20:24:14.831Z,95.75
2022-09-23T20:27:01.709Z,93.78
2022-09-23T20:29:29.836Z,94.49
2022-09-23T20:31:58.792Z,95.32
2022-09-23T20:34:29.863Z,98.31
2022-09-23T20:36:59.192Z,100.00
2022-09-23T20:39:28.180Z,100.00
2022-09-23T20:41:56.392Z,100.00
2022-09-23T20:44:25.082Z,100.00
2022-09-23T20:46:53.227Z,100.00
2022-09-23T20:49:21.526Z,100.00
2022-09-23T20:51:50.318Z,100.00
2022-09-23T20:54:19.268Z,100.00
2022-09-23T20:56:48.026Z,100.00
2022-09-23T20:59:17.794Z,100.00
2022-09-23T21:01:47.297Z,97.83
2022-09-23T21:04:15.708Z,97.70
2022-09-23T21:06:43.853Z,97.23
2022-09-23T21:09:11.987Z,95.67
2022-09-23T21:11:40.117Z,97.09
2022-09-23T21:14:08.392Z,96.38
2022-09-23T21:16:36.620Z,97.21
2022-09-23T21:19:07.971Z,96.50
2022-09-23T21:21:36.506Z,96.69
2022-09-23T21:24:31.405Z,97.43
2022-09-23T21:26:52.924Z,97.80
2022-09-23T21:29:21.941Z,98.08
2022-09-23T21:31:50.201Z,99.30
2022-09-23T21:34:19.291Z,98.76
2022-09-23T21:36:48.432Z,99.69
2022-09-23T21:39:16.656Z,98.53
2022-09-23T21:41:44.763Z,99.58
2022-09-23T21:44:12.796Z,95.91
2022-09-23T21:46:41.008Z,94.97
2022-09-23T21:49:09.220Z,93.96
2022-09-23T21:51:42.831Z,93.60
2022-09-23T21:54:18.818Z,94.46
2022-09-23T21:56:46.978Z,92.84
2022-09-23T21:59:15.159Z,92.02
2022-09-23T22:01:51.776Z,90.64
2022-09-23T22:04:22.132Z,87.71
2022-09-23T22:06:50.265Z,87.81
2022-09-23T22:09:21.004Z,88.41
2022-09-23T22:12:08.027Z,87.67
2022-09-23T22:14:36.896Z,87.55
2022-09-23T22:17:06.921Z,88.49
2022-09-23T22:19:40.196Z,88.62
2022-09-23T22:22:16.092Z,88.28
2022-09-23T22:24:46.150Z,88.98
2022-09-23T22:27:17.104Z,88.88
2022-09-23T22:30:03.734Z,89.10
2022-09-23T22:32:40.752Z,89.45
2022-09-23T22:35:17.692Z,89.88
2022-09-23T22:37:47.958Z,90.29
2022-09-23T22:40:16.624Z,88.14
2022-09-23T22:42:45.141Z,88.14
2022-09-23T22:45:13.493Z,88.78
2022-09-23T22:47:45.375Z,89.56
2022-09-23T22:50:15.251Z,88.40
2022-09-23T22:52:43.907Z,89.94
2022-09-23T22:55:12.707Z,91.03
2022-09-23T22:57:40.789Z,90.48
2022-09-23T23:00:09.496Z,90.83
2022-09-23T23:02:37.586Z,91.23
2022-09-23T23:05:06.291Z,89.23
2022-09-23T23:07:37.169Z,89.05
2022-09-23T23:10:10.266Z,88.13
2022-09-23T23:12:39.530Z,88.18
2022-09-23T23:15:09.322Z,88.19
2022-09-23T23:17:38.241Z,89.74
2022-09-23T23:20:07.124Z,90.49
2022-09-23T23:22:35.247Z,91.27
2022-09-23T23:25:03.451Z,91.82
2022-09-23T23:27:34.391Z,91.83
2022-09-23T23:30:02.513Z,93.76
2022-09-23T23:32:31.002Z,92.97
2022-09-23T23:34:59.074Z,92.78
2022-09-23T23:37:28.397Z,93.70
2022-09-23T23:39:56.487Z,93.32
2022-09-23T23:42:25.843Z,94.44
2022-09-23T23:44:55.220Z,95.37
2022-09-23T23:47:25.491Z,95.34
2022-09-23T23:49:55.633Z,95.04
2022-09-23T23:52:23.748Z,95.19
2022-09-23T23:54:52.246Z,92.63
2022-09-23T23:57:20.380Z,93.95
2022-09-23T23:59:48.451Z,96.44
